createdAt,value
2019-05-18T00:03:29.448Z,0.90
2019-05-18T00:08:33.461Z,0.93
2019-05-18T00:13:37.832Z,1.33
2019-05-18T00:18:41.898Z,0.80
2019-05-18T00:23:45.893Z,0.50
2019-05-18T00:28:49.940Z,0.93
2019-05-18T00:33:54.013Z,0.87
2019-05-18T00:38:57.995Z,1.27
2019-05-18T00:44:02.023Z,0.23
2019-05-18T00:49:07.360Z,0.70
2019-05-18T00:54:11.401Z,1.63
2019-05-18T00:59:16.341Z,1.33
2019-05-18T01:04:20.860Z,1.47
2019-05-18T01:09:24.910Z,0.93
2019-05-18T01:14:29.089Z,0.67
2019-05-18T01:19:33.104Z,0.43
2019-05-18T01:24:37.165Z,0.47
2019-05-18T01:29:41.179Z,0.30
2019-05-18T01:34:45.555Z,1.00
2019-05-18T01:39:49.946Z,0.60
2019-05-18T01:44:53.971Z,1.37
2019-05-18T01:49:57.981Z,0.93
2019-05-18T01:55:02.027Z,0.70
2019-05-18T02:00:06.797Z,1.50
2019-05-18T02:05:11.925Z,1.30
2019-05-18T02:10:17.080Z,1.33
2019-05-18T02:15:21.219Z,1.30
2019-05-18T02:20:25.292Z,1.23
2019-05-18T02:25:29.328Z,0.20
2019-05-18T02:30:33.334Z,0.83
2019-05-18T02:35:37.363Z,0.20
2019-05-18T02:40:41.544Z,1.07
2019-05-18T02:45:45.963Z,1.03
2019-05-18T02:50:50.143Z,0.53
2019-05-18T02:55:54.142Z,0.70
2019-05-18T03:00:58.196Z,0.43
2019-05-18T03:06:02.822Z,1.57
2019-05-18T03:11:07.285Z,0.63
2019-05-18T03:16:11.360Z,0.93
2019-05-18T03:21:15.601Z,0.40
2019-05-18T03:26:19.625Z,1.60
2019-05-18T03:31:23.709Z,1.10
2019-05-18T03:36:27.696Z,1.67
2019-05-18T03:41:32.012Z,0.73
2019-05-18T03:46:36.140Z,1.90
2019-05-18T03:51:40.163Z,0.47
2019-05-18T03:56:44.677Z,1.20
2019-05-18T04:01:49.152Z,1.37
2019-05-18T04:06:53.215Z,1.43
2019-05-18T04:11:57.333Z,2.23
2019-05-18T04:17:01.329Z,1.93
2019-05-18T04:22:05.671Z,1.17
2019-05-18T04:27:09.743Z,1.53
2019-05-18T04:32:13.771Z,1.03
2019-05-18T04:37:17.778Z,2.00
2019-05-18T04:42:21.770Z,2.20
2019-05-18T04:47:25.838Z,2.30
2019-05-18T04:52:30.261Z,1.37
2019-05-18T04:57:34.340Z,1.87
2019-05-18T05:02:38.709Z,1.80
2019-05-18T05:07:42.772Z,2.33
2019-05-18T05:12:47.157Z,1.32
2019-05-18T05:17:51.356Z,2.13
2019-05-18T05:22:55.365Z,1.57
2019-05-18T05:27:59.729Z,2.73
2019-05-18T05:33:04.384Z,1.50
2019-05-18T05:38:08.700Z,1.92
2019-05-18T05:43:12.768Z,1.98
2019-05-18T05:48:16.830Z,1.62
2019-05-18T05:53:22.000Z,2.08
2019-05-18T05:58:26.303Z,1.82
2019-05-18T06:03:30.376Z,1.47
2019-05-18T06:08:34.439Z,1.22
2019-05-18T06:13:38.633Z,1.57
2019-05-18T06:18:43.302Z,1.45
2019-05-18T06:23:47.359Z,1.85
2019-05-18T06:28:51.406Z,1.42
2019-05-18T06:33:55.414Z,1.30
2019-05-18T06:38:59.437Z,1.20
2019-05-18T06:44:03.509Z,1.62
2019-05-18T06:49:07.572Z,1.27
2019-05-18T06:54:11.921Z,1.47
2019-05-18T06:59:16.933Z,1.60
2019-05-18T07:04:21.307Z,1.10
2019-05-18T07:09:25.261Z,1.20
2019-05-18T07:14:29.652Z,1.47
2019-05-18T07:19:33.754Z,1.35
2019-05-18T07:24:37.780Z,1.17
2019-05-18T07:29:41.798Z,1.10
2019-05-18T07:34:45.822Z,1.35
2019-05-18T07:39:49.969Z,1.70
2019-05-18T07:44:54.112Z,1.02
2019-05-18T07:49:58.113Z,0.68
2019-05-18T07:55:03.055Z,0.75
2019-05-18T08:00:07.626Z,0.45
2019-05-18T08:05:11.622Z,0.90
2019-05-18T08:10:18.637Z,0.85
2019-05-18T08:15:23.978Z,0.65
2019-05-18T08:20:28.471Z,1.05
2019-05-18T08:25:32.528Z,0.85
2019-05-18T08:30:36.555Z,1.20
2019-05-18T08:35:40.562Z,0.70
2019-05-18T08:40:44.614Z,1.47
2019-05-18T08:45:48.619Z,0.50
2019-05-18T08:50:53.753Z,0.47
2019-05-18T08:55:57.781Z,0.40
2019-05-18T09:01:01.861Z,0.78
2019-05-18T09:06:05.924Z,0.23
2019-05-18T09:11:09.974Z,0.72
2019-05-18T09:16:14.153Z,0.53
2019-05-18T09:21:18.221Z,0.60
2019-05-18T09:26:22.249Z,0.90
2019-05-18T09:31:27.038Z,0.30
2019-05-18T09:36:31.148Z,0.42
2019-05-18T09:41:35.311Z,0.78
2019-05-18T09:46:39.348Z,0.30
2019-05-18T09:51:43.632Z,0.50
2019-05-18T09:56:47.865Z,0.82
2019-05-18T10:01:51.973Z,0.75
2019-05-18T10:06:56.011Z,0.50
2019-05-18T10:12:00.410Z,0.93
2019-05-18T10:17:04.715Z,0.55
2019-05-18T10:22:08.821Z,0.62
2019-05-18T10:27:13.069Z,1.33
2019-05-18T10:32:17.082Z,0.70
2019-05-18T10:37:21.281Z,0.30
2019-05-18T10:42:25.346Z,0.57
2019-05-18T10:47:29.477Z,0.50
2019-05-18T10:52:33.550Z,0.40
2019-05-18T10:57:38.058Z,0.40
2019-05-18T11:02:42.622Z,0.20
2019-05-18T11:07:46.652Z,0.87
2019-05-18T11:12:50.822Z,0.40
2019-05-18T11:17:54.870Z,0.50
2019-05-18T11:22:58.895Z,0.10
2019-05-18T11:28:02.995Z,0.60
2019-05-18T11:33:07.032Z,0.20
2019-05-18T11:38:11.056Z,0.43
2019-05-18T11:43:15.300Z,0.27
2019-05-18T11:48:19.336Z,0.53
2019-05-18T11:53:23.360Z,0.50
2019-05-18T11:58:27.516Z,0.20
2019-05-18T12:03:31.851Z,0.27
2019-05-18T12:08:36.344Z,0.40
2019-05-18T12:13:40.545Z,0.20
2019-05-18T12:18:44.753Z,0.23
2019-05-18T12:23:48.784Z,0.30
2019-05-18T12:28:52.827Z,0.87
2019-05-18T12:33:56.877Z,0.70
2019-05-18T12:39:00.909Z,0.37
2019-05-18T12:44:04.926Z,0.57
2019-05-18T12:49:09.360Z,0.73
2019-05-18T12:54:13.392Z,0.40
2019-05-18T12:59:17.823Z,0.30
2019-05-18T13:04:21.848Z,0.10
2019-05-18T13:09:25.867Z,0.20
2019-05-18T13:14:29.981Z,0.20
2019-05-18T13:19:34.045Z,0.30
2019-05-18T13:24:45.222Z,0.50
2019-05-18T13:29:43.813Z,0.60
2019-05-18T13:34:47.939Z,0.30
2019-05-18T13:39:52.063Z,0.40
2019-05-18T13:44:56.398Z,0.27
2019-05-18T13:50:00.858Z,0.10
2019-05-18T13:55:05.384Z,0.37
2019-05-18T14:00:10.261Z,0.43
2019-05-18T14:05:14.650Z,0.20
2019-05-18T14:10:19.338Z,0.20
2019-05-18T14:15:23.569Z,0.23
2019-05-18T14:20:27.751Z,0.27
2019-05-18T14:25:32.053Z,0.33
2019-05-18T14:30:36.282Z,0.20
2019-05-18T14:35:41.227Z,0.10
2019-05-18T14:40:45.403Z,0.20
2019-05-18T14:45:49.756Z,0.20
2019-05-18T14:50:53.958Z,0.10
2019-05-18T14:55:57.992Z,0.30
2019-05-18T15:01:02.262Z,0.20
2019-05-18T15:06:06.944Z,0.57
2019-05-18T15:11:10.982Z,0.20
2019-05-18T15:16:15.057Z,0.40
2019-05-18T15:21:19.122Z,0.20
2019-05-18T15:26:23.100Z,0.20
2019-05-18T15:31:27.163Z,0.23
2019-05-18T15:36:31.749Z,0.70
2019-05-18T15:41:35.862Z,0.30
2019-05-18T15:46:39.929Z,0.20
2019-05-18T15:51:43.944Z,0.47
2019-05-18T15:56:48.036Z,0.50
2019-05-18T16:01:52.112Z,0.40
2019-05-18T16:06:56.165Z,0.50
2019-05-18T16:12:00.439Z,0.23
2019-05-18T16:17:04.467Z,1.30
2019-05-18T16:22:08.565Z,1.07
2019-05-18T16:27:12.895Z,0.40
2019-05-18T16:32:17.217Z,0.27
2019-05-18T16:37:21.278Z,0.10
2019-05-18T16:42:25.291Z,0.30
2019-05-18T16:47:29.311Z,0.53
2019-05-18T16:52:33.717Z,0.30
2019-05-18T16:57:37.802Z,0.50
2019-05-18T17:02:41.811Z,0.10
2019-05-18T17:07:46.250Z,0.60
2019-05-18T17:12:50.431Z,0.50
2019-05-18T17:17:54.478Z,0.20
2019-05-18T17:23:02.525Z,0.23
2019-05-18T17:28:07.137Z,0.50
2019-05-18T17:33:11.292Z,0.60
2019-05-18T17:38:15.333Z,0.33
2019-05-18T17:43:20.474Z,0.30
2019-05-18T17:48:24.860Z,0.43
2019-05-18T17:53:29.341Z,0.83
2019-05-18T17:58:33.494Z,0.40
2019-05-18T18:03:37.768Z,0.20
2019-05-18T18:08:42.249Z,0.30
2019-05-18T18:13:48.013Z,0.17
2019-05-18T18:18:52.285Z,0.27
2019-05-18T18:23:58.648Z,0.70
2019-05-18T18:29:04.385Z,0.63
2019-05-18T18:34:11.580Z,0.20
2019-05-18T18:39:16.143Z,0.40
2019-05-18T18:44:21.794Z,0.30
2019-05-18T18:49:27.032Z,0.40
2019-05-18T18:54:33.551Z,0.60
2019-05-18T18:59:40.127Z,0.40
2019-05-18T19:04:47.931Z,0.10
2019-05-18T19:09:53.643Z,0.10
2019-05-18T19:15:02.723Z,0.10
2019-05-18T19:20:09.531Z,0.20
2019-05-18T19:25:16.343Z,0.33
2019-05-18T19:30:24.487Z,0.77
2019-05-18T19:35:33.288Z,0.30
2019-05-18T19:40:38.440Z,0.60
2019-05-18T19:45:45.435Z,0.30
2019-05-18T19:50:54.838Z,0.23
2019-05-18T19:56:04.618Z,0.37
2019-05-18T20:01:15.312Z,0.20
2019-05-18T20:06:25.538Z,0.40
2019-05-18T20:11:35.536Z,0.10
2019-05-18T20:16:48.725Z,0.30
2019-05-18T20:21:59.638Z,0.53
2019-05-18T20:27:07.968Z,0.83
2019-05-18T20:32:18.554Z,0.50
2019-05-18T20:37:24.143Z,0.30
2019-05-18T20:42:28.176Z,0.40
2019-05-18T20:47:33.168Z,0.20
2019-05-18T20:52:37.209Z,0.10
2019-05-18T20:57:41.606Z,0.30
2019-05-18T21:02:45.701Z,0.20
2019-05-18T21:07:49.898Z,0.10
2019-05-18T21:12:54.018Z,0.57
2019-05-18T21:17:58.133Z,1.40
2019-05-18T21:23:02.373Z,0.93
2019-05-18T21:28:06.510Z,0.30
2019-05-18T21:33:13.552Z,0.40
2019-05-18T21:38:17.747Z,1.00
2019-05-18T21:43:24.236Z,0.43
2019-05-18T21:48:28.281Z,0.37
2019-05-18T21:53:37.176Z,1.20
2019-05-18T21:58:46.377Z,0.63
2019-05-18T22:03:57.246Z,0.63
2019-05-18T22:09:07.261Z,0.40
2019-05-18T22:14:18.767Z,0.30
2019-05-18T22:19:27.964Z,0.67
2019-05-18T22:24:37.266Z,0.67
2019-05-18T22:29:47.208Z,0.60
2019-05-18T22:34:56.365Z,0.20
2019-05-18T22:40:04.661Z,0.60
2019-05-18T22:45:14.332Z,0.30
2019-05-18T22:50:22.066Z,0.50
2019-05-18T22:55:29.718Z,0.23
2019-05-18T23:00:36.709Z,0.40
2019-05-18T23:05:44.050Z,0.20
2019-05-18T23:10:50.332Z,0.63
2019-05-18T23:15:56.816Z,1.57
2019-05-18T23:21:03.569Z,0.30
2019-05-18T23:26:11.569Z,0.60
2019-05-18T23:31:14.348Z,0.60
2019-05-18T23:36:18.482Z,1.00
2019-05-18T23:41:22.550Z,0.40
2019-05-18T23:46:26.579Z,0.30
2019-05-18T23:51:30.695Z,0.33
2019-05-18T23:56:34.897Z,0.67
